Flight Track Log - Related Links

Times and Time Zones

All times are in EDT time to prevent confusion due to time zone crossing. See the N865JM flight status page for this flight to view local times or setup timezone preferences in your user account.

Time Position Orientation Groundspeed Altitude Reporting Facility
EDT Latitude Longitude Course Direction KTS MPH feet Rate Location/Type
Mon 10:08:37 AM 41.0833 -73.7167 288° West 194 223 1,200  Level New York TRACON
Mon 10:09:31 AM 41.1000 -73.7833 288° West 197 227 3,600 2,750 Climbing New York TRACON
Mon 10:10:37 AM 41.1000 -73.8833 270° West 257 296 6,700 1,700 Climbing New York TRACON
Mon 10:11:31 AM 41.0833 -73.9667 255° West 268 308 7,000 158 Climbing New York TRACON
Mon 10:12:31 AM 41.0167 -74.0167 210° Southwest 260 299 7,000 400 Level New York TRACON
Mon 10:13:31 AM 40.9500 -74.0167 180° South 270 311 7,800 1,150 Climbing New York TRACON
Mon 10:14:31 AM 40.8833 -74.0167 180° South 270 311 9,300 1,550 Climbing New York TRACON
Mon 10:15:31 AM 40.8167 -74.0500 201° Southwest 275 316 10,900 1,300 Climbing New York TRACON
Mon 10:16:31 AM 40.7333 -74.1000 204° Southwest 280 322 11,900 550 Climbing New York TRACON
Mon 10:17:31 AM 40.6667 -74.1333 201° Southwest 283 326 12,000 50 Climbing New York TRACON
Mon 10:18:31 AM 40.6167 -74.2000 225° Southwest 272 313 12,000  Level New York TRACON
Mon 10:19:31 AM 40.5833 -74.2833 242° Southwest 278 320 12,000 1,345 Level New York TRACON
Mon 10:21:16 AM 40.4408 -74.2017 156° South 317 365 15,700 1,818 Climbing New York Center
Mon 10:22:16 AM 40.4047 -74.0797 111° Southeast 335 386 17,000 650 Climbing New York Center
Mon 10:23:16 AM 40.3403 -74.0031 138° Southeast 308 354 17,000  Level New York Center
Mon 10:24:16 AM 40.2619 -74.0511 205° Southwest 252 290 17,000 434 Level New York Center
Mon 10:25:48 AM 40.1464 -74.1422 211° Southwest 299 344 18,100 1,294 Climbing Washington Center
Mon 10:26:49 AM 40.0719 -74.2008 211° Southwest 350 403 20,300 1,869 Climbing Washington Center
Mon 10:27:50 AM 39.9772 -74.2783 212° Southwest 368 423 21,900 1,729 Climbing Washington Center
Mon 10:28:47 AM 39.9008 -74.3500 216° Southwest 378 435 23,700 1,881 Climbing Washington Center
Mon 10:29:48 AM 39.8142 -74.4408 219° Southwest 378 435 25,600 1,623 Climbing Washington Center
Mon 10:30:49 AM 39.7483 -74.5256 225° Southwest 373 429 27,000 1,488 Climbing Washington Center
Mon 10:31:49 AM 39.6681 -74.6319 226° Southwest 373 429 28,600 1,488 Climbing Washington Center
Mon 10:32:50 AM 39.6000 -74.7189 225° Southwest 379 436 30,000 1,377 Climbing Washington Center
Mon 10:33:51 AM 39.5214 -74.8247 226° Southwest 379 436 31,400 1,169 Climbing Washington Center
Mon 10:34:48 AM 39.4511 -74.9169 225° Southwest 379 436 32,300 1,017 Climbing Washington Center
Mon 10:35:49 AM 39.3767 -75.0144 225° Southwest 379 436 33,400 1,180 Climbing Washington Center
Mon 10:36:50 AM 39.3061 -75.1061 225° Southwest 379 436 34,700 1,462 Climbing Washington Center
Mon 10:37:48 AM 39.2378 -75.1950 225° Southwest 361 415 36,300 1,525 Climbing Washington Center
Mon 10:38:48 AM 39.1733 -75.2783 225° Southwest 345 397 37,700 1,350 Climbing Washington Center
Mon 10:39:48 AM 39.1131 -75.3428 220° Southwest 324 373 39,000 1,140 Climbing Washington Center
Mon 10:40:49 AM 39.0194 -75.3753 195° South 324 373 40,000 500 Climbing Washington Center
Mon 10:41:48 AM 38.9214 -75.3942 189° South 344 396 40,000  Level Washington Center
Mon 10:42:48 AM 38.8214 -75.4131 188° South 361 415 40,000  Level Washington Center
Mon 10:43:48 AM 38.7150 -75.4375 190° South 374 430 40,000 -50 Level Washington Center
Mon 10:44:49 AM 38.6047 -75.4589 189° South 388 447 39,900  Descending Washington Center
Mon 10:45:49 AM 38.4881 -75.4775 187° South 388 447 40,000 50 Climbing Washington Center
Mon 10:46:50 AM 38.3836 -75.5017 190° South 388 447 40,000  Level Washington Center
Mon 10:47:48 AM 38.2858 -75.5442 199° South 388 447 40,000  Level Washington Center
Mon 10:48:49 AM 38.1939 -75.5997 205° Southwest 377 434 40,000  Level Washington Center
Mon 10:49:49 AM 38.1042 -75.6578 207° Southwest 366 421 40,000  Level Washington Center
Mon 10:50:49 AM 38.0292 -75.7131 210° Southwest 366 421 40,000  Level Washington Center
Mon 10:51:50 AM 37.9394 -75.7708 207° Southwest 360 414 40,000  Level Washington Center
Mon 10:52:50 AM 37.8497 -75.8231 205° Southwest 360 414 40,000  Level Washington Center
Mon 10:53:48 AM 37.7600 -75.8808 207° Southwest 360 414 40,000  Level Washington Center
Mon 10:54:48 AM 37.6681 -75.9381 206° Southwest 365 420 40,000  Level Washington Center
Mon 10:55:49 AM 37.5781 -75.9928 206° Southwest 365 420 40,000  Level Washington Center
Mon 10:56:50 AM 37.4842 -76.0472 205° Southwest 365 420 40,000  Level Washington Center
Mon 10:57:47 AM 37.3942 -76.1042 207° Southwest 365 420 40,000  Level Washington Center
Mon 10:58:48 AM 37.2917 -76.1583 203° Southwest 365 420 40,000  Level Washington Center
Mon 10:59:49 AM 37.2081 -76.2100 206° Southwest 372 428 40,000  Level Washington Center
Mon 11:00:50 AM 37.1264 -76.2586 205° Southwest 372 428 40,000  Level Washington Center
Mon 11:01:48 AM 37.0175 -76.3256 206° Southwest 366 421 40,000  Level Washington Center
Mon 11:02:49 AM 36.9275 -76.3792 205° Southwest 361 415 40,000  Level Washington Center
Mon 11:03:49 AM 36.8333 -76.4353 206° Southwest 361 415 40,000  Level Washington Center
Mon 11:04:50 AM 36.7431 -76.4914 206° Southwest 361 415 40,000  Level Washington Center
Mon 11:05:50 AM 36.6531 -76.5500 208° Southwest 361 415 40,000  Level Washington Center
Mon 11:06:48 AM 36.5608 -76.6031 205° Southwest 361 415 40,000  Level Washington Center
Mon 11:07:49 AM 36.4706 -76.6561 205° Southwest 361 415 40,000  Level Washington Center
Mon 11:08:50 AM 36.3783 -76.7092 205° Southwest 361 415 40,000  Level Washington Center
Mon 11:09:48 AM 36.2858 -76.7619 205° Southwest 361 415 40,000  Level Washington Center
Mon 11:10:49 AM 36.1956 -76.8172 206° Southwest 361 415 40,000  Level Washington Center
Mon 11:11:49 AM 36.1033 -76.8697 205° Southwest 361 415 40,000  Level Washington Center
Mon 11:12:50 AM 36.0108 -76.9222 205° Southwest 361 415 40,000  Level Washington Center
Mon 11:13:50 AM 35.9206 -76.9744 205° Southwest 361 415 40,000  Level Washington Center
Mon 11:14:48 AM 35.8261 -77.0217 202° Southwest 361 415 40,000  Level Washington Center
Mon 11:15:49 AM 35.7256 -77.0606 197° South 366 421 40,000  Level Washington Center
Mon 11:16:50 AM 35.6417 -77.0922 197° South 381 438 40,000  Level Washington Center
Mon 11:17:50 AM 35.5389 -77.1339 198° South 376 433 40,000  Level Washington Center
Mon 11:18:48 AM 35.4361 -77.1725 197° South 376 433 40,000  Level Washington Center
Mon 11:19:49 AM 35.3356 -77.2114 198° South 381 438 40,000  Level Washington Center
Mon 11:20:49 AM 35.2350 -77.2500 197° South 386 444 40,000  Level Washington Center
Mon 11:21:50 AM 35.1319 -77.2911 198° South 386 444 40,000  Level Washington Center
Mon 11:22:50 AM 35.0333 -77.3272 197° South 381 438 40,000  Level Washington Center
Mon 11:23:48 AM 34.9306 -77.3653 197° South 386 444 40,000  Level Washington Center
Mon 11:24:49 AM 34.8194 -77.4136 200° South 386 444 40,000  Level Washington Center
Mon 11:25:49 AM 34.7164 -77.4517 197° South 386 444 40,000  Level Washington Center
Mon 11:26:50 AM 34.6117 -77.4897 197° South 386 444 40,000  Level Washington Center
Mon 11:27:48 AM 34.5086 -77.5303 198° South 386 444 40,000  Level Washington Center
Mon 11:28:48 AM 34.4058 -77.5681 197° South 386 444 40,000  Level Washington Center
Mon 11:29:48 AM 34.3008 -77.6083 198° South 386 444 40,000  Level Washington Center
Mon 11:31:25 AM 34.1411 -77.6642 196° South 395 455 40,000  Level Jacksonville Center
Mon 11:32:25 AM 34.0342 -77.7031 197° South 400 460 40,000  Level Jacksonville Center
Mon 11:33:25 AM 33.9294 -77.7419 197° South 400 460 40,000  Level Jacksonville Center
Mon 11:34:25 AM 33.8247 -77.7806 197° South 395 455 40,000  Level Jacksonville Center
Mon 11:35:25 AM 33.7197 -77.8189 197° South 395 455 40,000  Level Jacksonville Center
Mon 11:36:25 AM 33.6006 -77.8658 198° South 395 455 40,000  Level Jacksonville Center
Mon 11:37:25 AM 33.4956 -77.9017 196° South 395 455 40,000  Level Jacksonville Center
Mon 11:38:25 AM 33.3908 -77.9422 198° South 395 455 40,000  Level Jacksonville Center
Mon 11:39:25 AM 33.2858 -77.9806 197° South 395 455 40,000  Level Jacksonville Center
Mon 11:40:25 AM 33.2014 -78.0100 196° South 395 455 40,000  Level Jacksonville Center
Mon 11:41:25 AM 33.0739 -78.0589 198° South 395 455 40,000  Level Jacksonville Center
Mon 11:42:25 AM 32.9669 -78.0944 196° South 395 455 40,000  Level Jacksonville Center
Mon 11:43:25 AM 32.8744 -78.1317 199° South 395 455 40,000  Level Jacksonville Center
Mon 11:44:25 AM 32.7692 -78.1667 196° South 395 455 40,000  Level Jacksonville Center
Mon 11:45:25 AM 32.6622 -78.2044 197° South 395 455 40,000  Level Jacksonville Center
Mon 11:46:25 AM 32.5550 -78.2444 197° South 395 455 40,000  Level Jacksonville Center
Mon 11:47:25 AM 32.4478 -78.2794 195° South 395 455 40,000  Level Jacksonville Center
Mon 11:48:25 AM 32.3325 -78.3247 198° South 400 460 40,000  Level Jacksonville Center
Mon 11:49:25 AM 32.2233 -78.3644 197° South 406 467 40,000  Level Jacksonville Center
Mon 11:50:25 AM 32.1161 -78.4042 197° South 401 461 40,000  Level Jacksonville Center
Mon 11:51:25 AM 32.0089 -78.4411 196° South 396 456 40,000  Level Jacksonville Center
Mon 11:52:25 AM 31.9019 -78.4806 197° South 396 456 40,000  Level Jacksonville Center
Mon 11:53:25 AM 31.7986 -78.5150 196° South 390 449 40,000  Level Jacksonville Center
Mon 11:54:25 AM 31.6875 -78.5567 198° South 405 466 40,000  Level Jacksonville Center
Mon 11:55:25 AM 31.5847 -78.6056 202° Southwest 405 466 40,000  Level Jacksonville Center
Mon 11:56:25 AM 31.4839 -78.6539 202° Southwest 407 468 40,000  Level Jacksonville Center
Mon 11:57:25 AM 31.3811 -78.7022 202° Southwest 407 468 40,000  Level Jacksonville Center
Mon 11:58:25 AM 31.2806 -78.7506 202° Southwest 405 466 40,000  Level Jacksonville Center
Mon 11:59:25 AM 31.1758 -78.8086 205° Southwest 397 457 40,000  Level Jacksonville Center
Mon 12:00:25 PM 31.0706 -78.8447 196° South 403 464 40,000  Level Jacksonville Center
Mon 12:01:25 PM 30.9614 -78.8858 198° South 409 471 40,000  Level Jacksonville Center
Mon 12:02:25 PM 30.8519 -78.9267 198° South 414 476 40,000  Level Jacksonville Center
Mon 12:03:25 PM 30.7406 -78.9675 197° South 420 483 40,000  Level Jacksonville Center
Mon 12:04:25 PM 30.6269 -79.0083 197° South 429 494 40,000  Level Jacksonville Center
Mon 12:05:08 PM 30.5639 -79.0303 197° South 425 489 40,000  Level Miami Center
Mon 12:06:08 PM 30.4550 -79.0714 198° South 419 482 40,000  Level Miami Center
Mon 12:07:08 PM 30.3397 -79.1147 198° South 419 482 40,000  Level Miami Center
Mon 12:08:08 PM 30.2328 -79.1533 197° South 427 491 40,000  Level Miami Center
Mon 12:09:08 PM 30.1153 -79.1939 197° South 427 491 40,000  Level Miami Center
Mon 12:10:08 PM 29.9997 -79.2511 203° Southwest 427 491 40,000  Level Miami Center
Mon 12:11:08 PM 29.8925 -79.3064 204° Southwest 421 484 40,000  Level Miami Center
Mon 12:12:08 PM 29.8231 -79.3453 206° Southwest 415 478 40,000  Level Miami Center
Mon 12:13:08 PM 29.7003 -79.4475 216° Southwest 415 478 40,000  Level Miami Center
Mon 12:14:08 PM 29.6031 -79.5169 212° Southwest 415 478 40,000 -500 Level Miami Center
Mon 12:15:08 PM 29.5078 -79.5861 212° Southwest 420 483 39,000 -1,250 Descending Miami Center
Mon 12:16:08 PM 29.4106 -79.6575 213° Southwest 420 483 37,500 -1,450 Descending Miami Center
Mon 12:17:08 PM 29.3092 -79.7239 210° Southwest 420 483 36,100 -1,450 Descending Miami Center
Mon 12:18:08 PM 29.2158 -79.7950 214° Southwest 426 490 34,600 -1,500 Descending Miami Center
Mon 12:19:08 PM 29.1100 -79.8683 211° Southwest 426 490 33,100 -1,450 Descending Miami Center
Mon 12:20:08 PM 29.0147 -79.9392 213° Southwest 426 490 31,700 -1,450 Descending Miami Center
Mon 12:21:08 PM 28.9108 -80.0100 211° Southwest 426 490 30,200 -1,500 Descending Miami Center
Mon 12:22:08 PM 28.8133 -80.0831 213° Southwest 426 490 28,700 -1,364 Descending Miami Center
Mon 12:23:20 PM 28.7094 -80.1556 211° Southwest 432 497 27,200 -1,500 Descending Miami Center
Mon 12:24:20 PM 28.5864 -80.2394 211° Southwest 438 504 25,400 -1,550 Descending Miami Center
Mon 12:25:20 PM 28.4947 -80.3242 219° Southwest 432 497 24,100 -1,050 Descending Miami Center
Mon 12:26:20 PM 28.4461 -80.4264 242° Southwest 416 479 23,300 -950 Descending Miami Center
Mon 12:27:20 PM 28.3928 -80.5569 245° Southwest 416 479 22,200 -650 Descending Miami Center
Mon 12:28:20 PM 28.3461 -80.6733 246° West 416 479 22,000 -250 Descending Miami Center
Mon 12:29:20 PM 28.2989 -80.7942 246° West 416 479 21,700 -650 Descending Miami Center
Mon 12:30:20 PM 28.2519 -80.9081 245° Southwest 416 479 20,700 -850 Descending Miami Center
Mon 12:31:20 PM 28.2028 -81.0242 244° Southwest 416 479 20,000 -350 Descending Miami Center
Mon 12:32:20 PM 28.1600 -81.1283 245° Southwest 416 479 20,000  Level Miami Center
Mon 12:33:20 PM 28.1128 -81.2444 245° Southwest 411 473 20,000  Level Miami Center
Mon 12:34:20 PM 28.0544 -81.3692 242° Southwest 417 480 20,000  Level Miami Center
Mon 12:35:20 PM 27.9750 -81.4411 219° Southwest 411 473 20,000  Level Miami Center
Mon 12:36:20 PM 27.8656 -81.4742 195° South 411 473 20,000 -450 Level Miami Center
Mon 12:37:20 PM 27.7528 -81.4744 180° South 398 458 19,100 -1,150 Descending Miami Center
Mon 12:38:20 PM 27.6275 -81.4764 181° South 410 472 17,700 -1,350 Descending Miami Center
Mon 12:39:20 PM 27.5169 -81.4767 180° South 405 466 16,400 -1,400 Descending Miami Center
Mon 12:40:20 PM 27.4042 -81.4792 181° South 405 466 14,900 -1,400 Descending Miami Center
Mon 12:41:20 PM 27.2956 -81.4794 180° South 405 466 13,600 -1,350 Descending Miami Center
Mon 12:42:20 PM 27.1869 -81.4797 180° South 400 460 12,200 -1,350 Descending Miami Center
Mon 12:43:20 PM 27.0806 -81.4803 180° South 400 460 10,900 -1,100 Descending Miami Center
Mon 12:44:20 PM 26.9786 -81.4669 173° South 387 445 10,000 -450 Descending Miami Center
Mon 12:45:20 PM 26.8903 -81.4214 155° Southeast 377 434 10,000 -50 Level Miami Center
Mon 12:46:20 PM 26.7956 -81.3806 159° South 374 430 9,900 -550 Descending Miami Center
Mon 12:47:20 PM 26.7117 -81.3911 186° South 297 342 8,900 -950 Descending Miami Center
Mon 12:48:20 PM 26.6364 -81.3953 183° South 289 333 8,000 -650 Descending Miami Center
Mon 12:49:20 PM 26.5633 -81.3972 181° South 273 314 7,600 -1,300 Descending Miami Center
Mon 12:50:20 PM 26.4897 -81.4153 192° South 273 314 5,400 -1,300 Descending Miami Center
Mon 12:51:20 PM 26.4222 -81.4381 197° South 263 303 5,000 -800 Descending Miami Center
Mon 12:52:20 PM 26.3667 -81.4753 211° Southwest 246 283 3,800 -1,200 Descending Miami Center
Mon 12:54:00 PM 26.2558 -81.6247 230° Southwest  Level FlightAware Approximate
Mon 01:01:00 PM 26.1500 -81.7667 215° Southwest  Level FlightAware Approximate
Mon 01:02:00 PM 26.1524 -81.7756 215° Southwest  Level Estimated
Mon 01:03:00 PM 26.1524 -81.7756 215° Southwest  Level Estimated
Mon 01:04:00 PM 26.1524 -81.7756 215° Southwest  Level Estimated
Mon 01:05:00 PM 26.1524 -81.7756 215° Southwest  Level Estimated
Mon 01:06:00 PM 26.1524 -81.7756 215° Southwest  Level Estimated

Login

Don't have an account? Register now (free) for customized features, flight alerts, and more!